createdAt,value
2019-05-23T00:00:54.706Z,1000.49
2019-05-23T00:01:54.852Z,1000.38
2019-05-23T00:02:54.794Z,1000.48
2019-05-23T00:03:54.799Z,1000.45
2019-05-23T00:04:54.822Z,1000.45
2019-05-23T00:05:54.852Z,1000.49
2019-05-23T00:06:54.886Z,1000.42
2019-05-23T00:07:55.112Z,1000.49
2019-05-23T00:08:54.939Z,1000.47
2019-05-23T00:09:54.968Z,1000.45
2019-05-23T00:10:55.003Z,1000.45
2019-05-23T00:11:55.026Z,1000.46
2019-05-23T00:12:55.061Z,1000.44
2019-05-23T00:13:55.084Z,1000.45
2019-05-23T00:14:55.112Z,1000.44
2019-05-23T00:15:55.142Z,1000.43
2019-05-23T00:16:55.169Z,1000.47
2019-05-23T00:17:55.198Z,1000.52
2019-05-23T00:18:55.228Z,1000.48
2019-05-23T00:19:55.256Z,1000.46
2019-05-23T00:20:55.285Z,1000.48
2019-05-23T00:21:55.313Z,1000.50
2019-05-23T00:22:55.345Z,1000.48
2019-05-23T00:23:55.371Z,1000.51
2019-05-23T00:24:55.400Z,1000.49
2019-05-23T00:25:55.435Z,1000.49
2019-05-23T00:26:55.458Z,1000.50
2019-05-23T00:27:55.487Z,1000.48
2019-05-23T00:29:09.042Z,1000.47
2019-05-23T00:29:55.543Z,1000.50
2019-05-23T00:30:55.572Z,1000.49
2019-05-23T00:31:55.601Z,1000.48
2019-05-23T00:32:55.633Z,1000.48
2019-05-23T00:33:55.659Z,1000.49
2019-05-23T00:34:55.690Z,1000.40
2019-05-23T00:35:55.718Z,1000.46
2019-05-23T00:37:03.162Z,1000.44
2019-05-23T00:37:55.775Z,1000.41
2019-05-23T00:38:55.803Z,1000.39
2019-05-23T00:39:55.833Z,1000.46
2019-05-23T00:40:55.859Z,1000.49
2019-05-23T00:41:55.898Z,1000.48
2019-05-23T00:42:55.917Z,1000.46
2019-05-23T00:43:55.948Z,1000.45
2019-05-23T00:44:55.980Z,1000.46
2019-05-23T00:45:56.004Z,1000.46
2019-05-23T00:46:56.035Z,1000.44
2019-05-23T00:47:56.061Z,1000.47
2019-05-23T00:48:56.091Z,1000.44
2019-05-23T00:49:56.119Z,1000.47
2019-05-23T00:50:56.148Z,1000.49
2019-05-23T00:51:56.177Z,1000.47
2019-05-23T00:52:56.204Z,1000.45
2019-05-23T00:53:56.242Z,1000.44
2019-05-23T00:54:56.263Z,1000.42
2019-05-23T00:55:56.302Z,1000.46
2019-05-23T00:56:56.320Z,1000.42
2019-05-23T00:57:56.349Z,1000.43
2019-05-23T00:58:56.382Z,1000.46
2019-05-23T00:59:56.410Z,1000.40
2019-05-23T01:00:56.434Z,1000.45
2019-05-23T01:01:56.466Z,1000.44
2019-05-23T01:02:56.490Z,1000.43
2019-05-23T01:03:56.520Z,1000.41
2019-05-23T01:04:56.550Z,1000.41
2019-05-23T01:05:56.577Z,1000.38
2019-05-23T01:06:56.607Z,1000.39
2019-05-23T01:07:56.640Z,1000.36
2019-05-23T01:08:56.665Z,1000.37
2019-05-23T01:09:56.691Z,1000.35
2019-05-23T01:10:56.721Z,1000.34
2019-05-23T01:11:56.750Z,1000.36
2019-05-23T01:12:56.780Z,1000.32
2019-05-23T01:13:56.806Z,1000.32
2019-05-23T01:14:56.834Z,1000.27
2019-05-23T01:15:56.864Z,1000.28
2019-05-23T01:16:56.895Z,1000.25
2019-05-23T01:17:56.922Z,1000.30
2019-05-23T01:18:56.953Z,1000.27
2019-05-23T01:19:57.181Z,1000.27
2019-05-23T01:20:57.011Z,1000.23
2019-05-23T01:21:57.035Z,1000.24
2019-05-23T01:22:57.064Z,1000.21
2019-05-23T01:23:57.103Z,1000.22
2019-05-23T01:24:57.119Z,1000.18
2019-05-23T01:25:57.148Z,1000.14
2019-05-23T01:26:57.177Z,1000.20
2019-05-23T01:27:57.207Z,1000.18
2019-05-23T01:28:57.235Z,1000.18
2019-05-23T01:29:57.262Z,1000.22
2019-05-23T01:30:57.292Z,1000.21
2019-05-23T01:31:57.696Z,1000.23
2019-05-23T01:32:57.354Z,1000.20
2019-05-23T01:33:57.376Z,1000.24
2019-05-23T01:34:57.407Z,1000.23
2019-05-23T01:35:57.435Z,1000.23
2019-05-23T01:36:57.490Z,1000.22
2019-05-23T01:37:57.492Z,1000.24
2019-05-23T01:38:57.519Z,1000.23
2019-05-23T01:39:57.549Z,1000.24
2019-05-23T01:40:57.578Z,1000.24
2019-05-23T01:41:57.604Z,1000.20
2019-05-23T01:42:57.634Z,1000.23
2019-05-23T01:43:57.662Z,1000.22
2019-05-23T01:45:58.931Z,1000.16
2019-05-23T01:46:57.746Z,1000.17
2019-05-23T01:47:57.781Z,1000.16
2019-05-23T01:48:57.819Z,1000.19
2019-05-23T01:49:57.856Z,1000.15
2019-05-23T01:50:57.860Z,1000.18
2019-05-23T01:51:57.892Z,1000.16
2019-05-23T01:52:57.957Z,1000.20
2019-05-23T01:53:57.948Z,1000.19
2019-05-23T01:54:57.974Z,1000.19
2019-05-23T01:56:00.629Z,1000.19
2019-05-23T01:57:45.587Z,1000.22
2019-05-23T01:58:45.614Z,1000.24
2019-05-23T01:59:45.642Z,1000.20
2019-05-23T02:00:45.669Z,1000.22
2019-05-23T02:01:45.700Z,1000.21
2019-05-23T02:02:45.753Z,1000.26
2019-05-23T02:03:46.288Z,1000.22
2019-05-23T02:04:45.783Z,1000.25
2019-05-23T02:05:46.417Z,1000.24
2019-05-23T02:07:45.868Z,1000.22
2019-05-23T02:08:45.895Z,1000.24
2019-05-23T02:09:45.923Z,1000.25
2019-05-23T02:10:45.952Z,1000.23
2019-05-23T02:11:45.988Z,1000.24
2019-05-23T02:12:46.008Z,1000.20
2019-05-23T02:13:46.043Z,1000.17
2019-05-23T02:14:46.070Z,1000.17
2019-05-23T02:15:46.093Z,1000.15
2019-05-23T02:16:46.122Z,1000.17
2019-05-23T02:17:46.150Z,1000.15
2019-05-23T02:18:46.180Z,1000.20
2019-05-23T02:19:46.209Z,1000.19
2019-05-23T02:20:46.279Z,1000.19
2019-05-23T02:21:46.262Z,1000.20
2019-05-23T02:22:46.318Z,1000.16
2019-05-23T02:24:46.663Z,1000.17
2019-05-23T02:28:12.129Z,1000.22
2019-05-23T02:31:46.547Z,1000.15
2019-05-23T02:32:46.574Z,1000.17
2019-05-23T02:37:07.603Z,1000.17
2019-05-23T02:38:07.629Z,1000.22
2019-05-23T02:39:07.657Z,1000.19
2019-05-23T02:40:07.714Z,1000.21
2019-05-23T02:46:09.270Z,1000.19
2019-05-23T02:47:07.883Z,1000.25
2019-05-23T02:50:07.968Z,1000.20
2019-05-23T02:51:07.995Z,1000.21
2019-05-23T02:52:08.024Z,1000.21
2019-05-23T02:53:08.074Z,1000.18
2019-05-23T02:54:08.082Z,1000.15
2019-05-23T02:56:08.367Z,1000.13
2019-05-23T02:57:08.187Z,1000.18
2019-05-23T02:59:08.455Z,1000.18
2019-05-23T03:00:08.679Z,1000.12
2019-05-23T03:01:08.503Z,1000.11
2019-05-23T03:02:08.511Z,1000.15
2019-05-23T03:05:08.818Z,1000.10
2019-05-23T03:06:08.444Z,1000.12
2019-05-23T03:07:08.673Z,1000.09
2019-05-23T03:10:08.759Z,1000.09
2019-05-23T03:17:08.731Z,1000.09
2019-05-23T03:18:08.756Z,1000.08
2019-05-23T03:19:08.784Z,1000.02
2019-05-23T03:20:08.814Z,1000.11
2019-05-23T03:21:08.855Z,1000.11
2019-05-23T03:27:09.035Z,1000.09
2019-05-23T03:28:09.044Z,1000.11
2019-05-23T03:29:09.090Z,1000.08
2019-05-23T03:30:09.118Z,1000.07
2019-05-23T03:31:28.782Z,1000.06
2019-05-23T03:32:09.174Z,1000.03
2019-05-23T03:33:09.388Z,1000.03
2019-05-23T03:34:09.228Z,1000.06
2019-05-23T03:35:09.470Z,1000.03
2019-05-23T03:36:09.297Z,1000.06
2019-05-23T03:37:09.312Z,1000.06
2019-05-23T03:39:09.370Z,1000.03
2019-05-23T03:40:09.406Z,1000.05
2019-05-23T03:41:09.425Z,1000.05
2019-05-23T03:42:09.453Z,1000.01
2019-05-23T03:43:09.690Z,1000.07
2019-05-23T03:44:09.730Z,1000.07
2019-05-23T03:46:09.565Z,1000.00
2019-05-23T03:47:09.598Z,999.99
2019-05-23T03:48:09.629Z,1000.02
2019-05-23T03:49:09.873Z,1000.06
2019-05-23T03:50:09.683Z,1000.04
2019-05-23T03:51:09.712Z,1000.03
2019-05-23T03:52:10.141Z,1000.06
2019-05-23T03:53:10.677Z,1000.02
2019-05-23T03:54:09.996Z,1000.05
2019-05-23T03:55:09.824Z,1000.01
2019-05-23T03:56:10.057Z,1000.04
2019-05-23T03:57:09.884Z,1000.04
2019-05-23T03:58:10.117Z,1000.03
2019-05-23T03:59:10.335Z,999.98
2019-05-23T04:01:10.191Z,1000.05
2019-05-23T04:03:10.049Z,1000.01
2019-05-23T04:04:10.395Z,1000.03
2019-05-23T04:05:10.206Z,1000.04
2019-05-23T04:06:10.335Z,1000.01
2019-05-23T04:07:10.360Z,1000.05
2019-05-23T04:08:10.198Z,1000.04
2019-05-23T04:09:10.621Z,1000.02
2019-05-23T04:10:10.446Z,1000.05
2019-05-23T04:11:10.295Z,1000.06
2019-05-23T04:12:10.653Z,1000.06
2019-05-23T04:17:10.439Z,1000.04
2019-05-23T04:18:10.469Z,1000.03
2019-05-23T04:19:10.497Z,1000.04
2019-05-23T04:20:10.727Z,1000.03
2019-05-23T04:21:10.554Z,1000.06
2019-05-23T04:22:10.993Z,1000.04
2019-05-23T04:23:10.610Z,1000.06
2019-05-23T04:24:10.666Z,1000.04
2019-05-23T04:27:10.727Z,1000.07
2019-05-23T04:29:10.778Z,1000.03
2019-05-23T04:30:10.805Z,1000.04
2019-05-23T04:33:11.298Z,1000.09
2019-05-23T04:36:11.984Z,1000.08
2019-05-23T04:37:11.212Z,1000.09
2019-05-23T04:39:11.064Z,1000.05
2019-05-23T04:42:11.350Z,1000.06
2019-05-23T04:43:11.177Z,1000.04
2019-05-23T04:49:12.364Z,1000.09
2019-05-23T04:54:11.711Z,1000.06
2019-05-23T04:55:11.732Z,1000.10
2019-05-23T05:04:12.671Z,1000.21
2019-05-23T05:23:14.681Z,1000.24
2019-05-23T05:24:14.701Z,1000.26
2019-05-23T05:25:14.729Z,1000.23
2019-05-23T05:26:14.757Z,1000.22
2019-05-23T05:27:14.796Z,1000.28
2019-05-23T05:28:14.825Z,1000.24
2019-05-23T05:29:14.851Z,1000.26
2019-05-23T05:30:14.875Z,1000.25
2019-05-23T05:31:14.922Z,1000.28
2019-05-23T05:32:14.933Z,1000.29
2019-05-23T05:33:14.963Z,1000.30
2019-05-23T05:34:14.991Z,1000.28
2019-05-23T05:35:15.031Z,1000.29
2019-05-23T05:36:15.053Z,1000.30
2019-05-23T05:37:15.082Z,1000.30
2019-05-23T05:38:15.111Z,1000.31
2019-05-23T05:39:15.138Z,1000.29
2019-05-23T05:40:15.168Z,1000.27
2019-05-23T05:41:15.198Z,1000.28
2019-05-23T05:42:15.228Z,1000.27
2019-05-23T05:43:15.260Z,1000.23
2019-05-23T05:44:15.288Z,1000.26
2019-05-23T05:45:15.317Z,1000.28
2019-05-23T05:46:15.344Z,1000.26
2019-05-23T05:47:15.376Z,1000.29
2019-05-23T05:48:15.406Z,1000.25
2019-05-23T05:49:15.439Z,1000.30
2019-05-23T05:50:15.463Z,1000.30
2019-05-23T05:51:15.494Z,1000.31
2019-05-23T05:52:15.524Z,1000.31
2019-05-23T05:53:15.552Z,1000.26
2019-05-23T05:54:15.651Z,1000.33
2019-05-23T05:55:15.618Z,1000.29
2019-05-23T05:56:15.687Z,1000.34
2019-05-23T05:57:15.673Z,1000.31
2019-05-23T05:58:15.701Z,1000.26
2019-05-23T05:59:15.753Z,1000.25
2019-05-23T06:00:15.769Z,1000.25
2019-05-23T06:01:31.178Z,1000.28
2019-05-23T06:02:15.819Z,1000.26
2019-05-23T06:03:15.853Z,1000.23
2019-05-23T06:04:15.879Z,1000.26
2019-05-23T06:05:15.911Z,1000.26
2019-05-23T06:07:17.219Z,1000.26
2019-05-23T06:12:16.755Z,1000.23
2019-05-23T06:13:16.380Z,1000.21
2019-05-23T06:19:16.335Z,1000.12
2019-05-23T06:22:17.057Z,1000.15
2019-05-23T06:25:16.531Z,1000.12
2019-05-23T06:26:16.548Z,1000.15
2019-05-23T06:27:16.581Z,1000.06
2019-05-23T06:28:16.639Z,1000.06
2019-05-23T06:30:16.719Z,1000.06
2019-05-23T06:31:16.703Z,1000.05
2019-05-23T06:32:16.736Z,1000.03
2019-05-23T06:33:23.384Z,1000.09
2019-05-23T06:34:16.804Z,1000.09
2019-05-23T06:35:16.829Z,1000.08
2019-05-23T06:36:16.881Z,1000.06
2019-05-23T06:37:16.894Z,1000.08
2019-05-23T06:38:16.959Z,1000.03
2019-05-23T06:39:16.978Z,1000.03
2019-05-23T06:40:17.007Z,1000.00
2019-05-23T06:41:17.043Z,999.99
2019-05-23T06:42:17.047Z,1000.02
2019-05-23T06:43:17.078Z,1000.01
2019-05-23T06:44:17.111Z,1000.02
2019-05-23T06:45:17.142Z,1000.04
2019-05-23T06:46:17.172Z,1000.01
2019-05-23T06:47:17.206Z,1000.00
2019-05-23T06:48:17.236Z,999.96
2019-05-23T06:49:17.269Z,999.92
2019-05-23T06:50:17.302Z,999.95
2019-05-23T06:51:17.332Z,999.96
2019-05-23T06:52:17.367Z,999.94
2019-05-23T06:53:17.417Z,999.97
2019-05-23T06:54:17.427Z,999.96
2019-05-23T06:55:17.459Z,999.93
2019-05-23T06:56:17.519Z,999.88
2019-05-23T06:57:17.523Z,999.88
2019-05-23T06:58:17.559Z,999.86
2019-05-23T06:59:18.801Z,999.84
2019-05-23T07:00:17.622Z,999.88
2019-05-23T07:01:17.651Z,999.87
2019-05-23T07:02:17.685Z,999.85
2019-05-23T07:03:17.716Z,999.83
2019-05-23T07:04:17.747Z,999.80
2019-05-23T07:05:17.784Z,999.83
2019-05-23T07:06:17.822Z,999.78
2019-05-23T07:07:17.846Z,999.79
2019-05-23T07:08:17.979Z,999.78
2019-05-23T07:11:48.807Z,999.83
2019-05-23T07:12:48.837Z,999.84
2019-05-23T07:13:48.865Z,999.78
2019-05-23T07:14:48.899Z,999.79
2019-05-23T07:15:48.931Z,999.79
2019-05-23T07:16:50.349Z,999.78
2019-05-23T07:17:48.996Z,999.80
2019-05-23T07:18:49.094Z,999.85
2019-05-23T07:19:49.063Z,999.86
2019-05-23T07:20:49.096Z,999.84
2019-05-23T07:21:49.126Z,999.86
2019-05-23T07:23:49.195Z,999.91
2019-05-23T07:24:58.359Z,999.88
2019-05-23T07:25:49.259Z,999.85
2019-05-23T07:26:49.294Z,999.85
2019-05-23T07:27:49.340Z,999.86
2019-05-23T07:28:49.360Z,999.85
2019-05-23T07:29:49.392Z,999.87
2019-05-23T07:30:49.425Z,999.85
2019-05-23T07:31:49.459Z,999.85
2019-05-23T07:32:49.497Z,999.87
2019-05-23T07:34:00.910Z,999.84
2019-05-23T07:34:49.561Z,999.81
2019-05-23T07:35:49.602Z,999.88
2019-05-23T07:36:49.629Z,999.89
2019-05-23T07:37:49.693Z,999.85
2019-05-23T07:38:49.922Z,999.88
2019-05-23T07:39:49.743Z,999.89
2019-05-23T07:40:49.764Z,999.89
2019-05-23T07:41:49.796Z,999.94
2019-05-23T07:42:49.834Z,999.97
2019-05-23T07:43:49.865Z,999.98
2019-05-23T07:44:49.905Z,999.95
2019-05-23T07:45:49.933Z,999.92
2019-05-23T07:46:49.971Z,999.97
2019-05-23T07:47:50.005Z,999.93
2019-05-23T07:48:50.037Z,999.91
2019-05-23T07:49:50.068Z,999.89
2019-05-23T07:50:50.104Z,999.89
2019-05-23T07:51:50.141Z,999.91
2019-05-23T07:52:50.173Z,999.89
2019-05-23T07:53:50.601Z,999.90
2019-05-23T07:54:50.250Z,999.91
2019-05-23T07:55:50.606Z,999.88
2019-05-23T07:56:50.311Z,999.89
2019-05-23T07:57:50.344Z,999.87
2019-05-23T07:58:50.378Z,999.88
2019-05-23T07:59:50.414Z,999.90
2019-05-23T08:00:50.448Z,999.89
2019-05-23T08:01:50.481Z,999.90
2019-05-23T08:02:50.520Z,999.86
2019-05-23T08:03:50.551Z,999.88
2019-05-23T08:04:50.595Z,999.85
2019-05-23T08:05:50.635Z,999.84
2019-05-23T08:06:50.657Z,999.81
2019-05-23T08:07:50.717Z,999.81
2019-05-23T08:08:50.725Z,999.84
2019-05-23T08:09:50.827Z,999.80
2019-05-23T08:10:50.797Z,999.77
2019-05-23T08:11:50.834Z,999.79
2019-05-23T08:12:50.866Z,999.82
2019-05-23T08:13:50.929Z,999.80
2019-05-23T08:14:50.934Z,999.75
2019-05-23T08:15:50.990Z,999.79
2019-05-23T08:16:51.004Z,999.78
2019-05-23T08:17:51.040Z,999.76
2019-05-23T08:18:52.014Z,999.75
2019-05-23T08:19:51.119Z,999.79
2019-05-23T08:20:51.155Z,999.78
2019-05-23T08:21:51.183Z,999.81
2019-05-23T08:22:51.215Z,999.83
2019-05-23T08:23:51.251Z,999.80
2019-05-23T08:24:51.616Z,999.79
2019-05-23T08:25:51.348Z,999.73
2019-05-23T08:26:51.694Z,999.76
2019-05-23T08:27:51.392Z,999.72
2019-05-23T08:29:21.701Z,999.76
2019-05-23T08:29:51.485Z,999.78
2019-05-23T08:30:51.499Z,999.73
2019-05-23T08:31:51.770Z,999.72
2019-05-23T08:32:51.570Z,999.74
2019-05-23T08:33:51.605Z,999.72
2019-05-23T08:34:51.656Z,999.71
2019-05-23T08:35:51.676Z,999.72
2019-05-23T08:36:51.759Z,999.73
2019-05-23T08:37:51.747Z,999.73
2019-05-23T08:40:51.861Z,999.75
2019-05-23T08:41:51.892Z,999.71
2019-05-23T08:42:51.927Z,999.76
2019-05-23T08:43:51.963Z,999.77
2019-05-23T08:44:52.003Z,999.72
2019-05-23T08:45:52.054Z,999.74
2019-05-23T08:46:52.401Z,999.71
2019-05-23T08:47:52.119Z,999.74
2019-05-23T08:48:52.143Z,999.66
2019-05-23T08:49:52.179Z,999.65
2019-05-23T08:50:52.231Z,999.62
2019-05-23T08:51:52.253Z,999.65
2019-05-23T08:52:52.288Z,999.64
2019-05-23T08:53:52.324Z,999.61
2019-05-23T08:54:52.361Z,999.64
2019-05-23T08:55:52.432Z,999.61
2019-05-23T08:56:52.461Z,999.58
2019-05-23T08:57:52.469Z,999.61
2019-05-23T08:58:52.507Z,999.59
2019-05-23T08:59:52.542Z,999.65
2019-05-23T09:00:52.609Z,999.60
2019-05-23T09:01:52.651Z,999.59
2019-05-23T09:02:52.652Z,999.56
2019-05-23T09:03:52.692Z,999.58
2019-05-23T09:05:04.620Z,999.59
2019-05-23T09:05:52.764Z,999.63
2019-05-23T09:06:52.801Z,999.59
2019-05-23T09:07:52.840Z,999.63
2019-05-23T09:08:52.889Z,999.51
2019-05-23T09:09:52.924Z,999.51
2019-05-23T09:10:52.947Z,999.53
2019-05-23T09:11:52.987Z,999.57
2019-05-23T09:12:53.024Z,999.55
2019-05-23T09:13:53.063Z,999.54
2019-05-23T09:14:53.096Z,999.55
2019-05-23T09:16:35.685Z,999.45
2019-05-23T09:17:51.402Z,999.45
2019-05-23T09:18:35.761Z,999.48
2019-05-23T09:19:35.799Z,999.47
2019-05-23T09:20:35.835Z,999.45
2019-05-23T09:21:35.909Z,999.45
2019-05-23T09:22:35.906Z,999.44
2019-05-23T09:23:35.941Z,999.42
2019-05-23T09:24:35.980Z,999.43
2019-05-23T09:25:36.026Z,999.41
2019-05-23T09:26:36.054Z,999.46
2019-05-23T09:27:36.136Z,999.42
2019-05-23T09:28:36.139Z,999.45
2019-05-23T09:29:36.168Z,999.42
2019-05-23T09:30:36.207Z,999.45
2019-05-23T09:31:36.238Z,999.39
2019-05-23T09:32:36.279Z,999.43
2019-05-23T09:33:36.318Z,999.42
2019-05-23T09:34:36.352Z,999.41
2019-05-23T09:35:36.394Z,999.43
2019-05-23T09:36:36.429Z,999.41
2019-05-23T09:37:36.493Z,999.40
2019-05-23T09:45:36.759Z,999.44
2019-05-23T09:46:36.795Z,999.38
2019-05-23T09:47:36.876Z,999.33
2019-05-23T09:48:36.895Z,999.44
2019-05-23T09:49:36.932Z,999.41
2019-05-23T09:50:36.944Z,999.34
2019-05-23T09:51:36.981Z,999.44
2019-05-23T09:52:37.017Z,999.40
2019-05-23T09:53:37.271Z,999.40
2019-05-23T09:54:37.134Z,999.38
2019-05-23T09:55:37.133Z,999.31
2019-05-23T09:56:37.170Z,999.40
2019-05-23T09:57:37.205Z,999.41
2019-05-23T09:58:37.243Z,999.39
2019-05-23T09:59:37.302Z,999.50
2019-05-23T10:00:37.339Z,999.39
2019-05-23T10:01:37.363Z,999.39
2019-05-23T10:02:37.393Z,999.41
2019-05-23T10:03:37.427Z,999.37
2019-05-23T10:04:37.467Z,999.33
2019-05-23T10:05:44.140Z,999.37
2019-05-23T10:06:37.544Z,999.40
2019-05-23T10:07:37.580Z,999.34
2019-05-23T10:08:37.651Z,999.33
2019-05-23T10:09:37.667Z,999.35
2019-05-23T10:10:37.717Z,999.34
2019-05-23T10:12:37.770Z,999.27
2019-05-23T10:13:39.542Z,999.23
2019-05-23T10:14:37.871Z,999.22
2019-05-23T10:15:37.887Z,999.18
2019-05-23T10:16:37.917Z,999.23
2019-05-23T10:17:37.956Z,999.19
2019-05-23T10:18:37.999Z,999.21
2019-05-23T10:19:38.034Z,999.22
2019-05-23T10:20:38.071Z,999.18
2019-05-23T10:21:38.111Z,999.18
2019-05-23T10:22:38.147Z,999.19
2019-05-23T10:23:38.184Z,999.15
2019-05-23T10:24:38.223Z,999.17
2019-05-23T10:25:42.103Z,999.18
2019-05-23T10:26:40.922Z,999.13
2019-05-23T10:27:38.406Z,999.21
2019-05-23T10:28:38.408Z,999.22
2019-05-23T10:29:38.452Z,999.24
2019-05-23T10:30:38.458Z,999.26
2019-05-23T10:31:38.499Z,999.26
2019-05-23T10:32:39.144Z,999.23
2019-05-23T10:33:38.580Z,999.26
2019-05-23T10:34:38.623Z,999.27
2019-05-23T10:35:38.663Z,999.31
2019-05-23T10:36:38.706Z,999.29
2019-05-23T10:37:38.749Z,999.36
2019-05-23T10:38:38.795Z,999.44
2019-05-23T10:39:38.837Z,999.53
2019-05-23T10:40:38.881Z,999.54
2019-05-23T10:41:39.151Z,999.60
2019-05-23T10:42:38.970Z,999.64
2019-05-23T10:43:39.443Z,999.68
2019-05-23T10:44:39.273Z,999.73
2019-05-23T10:45:39.133Z,999.69
2019-05-23T10:47:39.207Z,999.65
2019-05-23T10:48:39.244Z,999.71
2019-05-23T10:50:25.162Z,999.71
2019-05-23T10:51:21.962Z,999.74
2019-05-23T10:52:22.115Z,999.72
2019-05-23T10:53:22.059Z,999.69
2019-05-23T10:54:22.111Z,999.73
2019-05-23T10:55:22.160Z,999.66
2019-05-23T10:56:22.199Z,999.77
2019-05-23T10:57:22.246Z,999.79
2019-05-23T10:58:22.297Z,999.74
2019-05-23T11:00:22.398Z,999.73
2019-05-23T11:01:22.440Z,999.69
2019-05-23T11:02:27.070Z,999.68
2019-05-23T11:03:22.537Z,999.75
2019-05-23T11:04:22.587Z,999.73
2019-05-23T11:05:22.637Z,999.74
2019-05-23T11:06:22.688Z,999.68
2019-05-23T11:07:22.735Z,999.70
2019-05-23T11:08:28.540Z,999.70
2019-05-23T11:09:36.655Z,999.77
2019-05-23T11:10:22.885Z,999.72
2019-05-23T11:11:22.995Z,999.69
2019-05-23T11:12:22.985Z,999.65
2019-05-23T11:13:23.031Z,999.68
2019-05-23T11:14:23.085Z,999.67
2019-05-23T11:15:23.133Z,999.70
2019-05-23T11:16:23.181Z,999.70
2019-05-23T11:17:23.233Z,999.70
2019-05-23T11:18:23.282Z,999.70
2019-05-23T11:19:23.340Z,999.72
2019-05-23T11:20:23.383Z,999.71
2019-05-23T11:21:23.453Z,999.70
2019-05-23T11:22:23.482Z,999.69
2019-05-23T11:23:23.534Z,999.64
2019-05-23T11:24:23.587Z,999.67
2019-05-23T11:25:23.634Z,999.67
2019-05-23T11:26:23.686Z,999.66
2019-05-23T11:27:23.745Z,999.63
2019-05-23T11:28:23.786Z,999.66
2019-05-23T11:29:27.092Z,999.63
2019-05-23T11:30:23.894Z,999.65
2019-05-23T11:31:23.941Z,999.64
2019-05-23T11:32:23.991Z,999.65
2019-05-23T11:33:24.041Z,999.61
2019-05-23T11:34:24.092Z,999.59
2019-05-23T11:35:24.141Z,999.61
2019-05-23T11:36:34.871Z,999.57
2019-05-23T11:37:24.246Z,999.54
2019-05-23T11:38:24.295Z,999.60
2019-05-23T11:39:24.351Z,999.55
2019-05-23T11:40:24.397Z,999.55
2019-05-23T11:41:24.449Z,999.53
2019-05-23T11:42:24.500Z,999.49
2019-05-23T11:43:24.552Z,999.42
2019-05-23T11:44:24.615Z,999.39
2019-05-23T11:45:24.651Z,999.45
2019-05-23T11:46:24.703Z,999.46
2019-05-23T11:47:24.770Z,999.48
2019-05-23T11:48:24.808Z,999.43
2019-05-23T11:49:25.089Z,999.45
2019-05-23T11:50:24.908Z,999.47
2019-05-23T11:51:25.969Z,999.43
2019-05-23T11:52:25.011Z,999.40
2019-05-23T11:53:25.066Z,999.42
2019-05-23T11:54:25.114Z,999.42
2019-05-23T11:55:25.166Z,999.33
2019-05-23T11:56:25.223Z,999.32
2019-05-23T11:57:25.280Z,999.33
2019-05-23T11:58:25.338Z,999.30
2019-05-23T11:59:25.370Z,999.36
2019-05-23T12:00:25.425Z,999.36
2019-05-23T12:01:25.470Z,999.39
2019-05-23T12:02:25.523Z,999.38
2019-05-23T12:03:25.574Z,999.41
2019-05-23T12:04:25.628Z,999.45
2019-05-23T12:05:25.935Z,999.36
2019-05-23T12:06:26.580Z,999.39
2019-05-23T12:07:25.781Z,999.42
2019-05-23T12:08:25.836Z,999.40
2019-05-23T12:09:25.884Z,999.44
2019-05-23T12:10:26.062Z,999.48
2019-05-23T12:11:25.986Z,999.44
2019-05-23T12:12:26.068Z,999.47
2019-05-23T12:13:26.089Z,999.42
2019-05-23T12:14:26.146Z,999.41
2019-05-23T12:15:26.193Z,999.40
2019-05-23T12:16:26.245Z,999.35
2019-05-23T12:17:26.496Z,999.39
2019-05-23T12:18:26.368Z,999.32
2019-05-23T12:19:26.419Z,999.38
2019-05-23T12:20:26.755Z,999.32
2019-05-23T12:21:26.507Z,999.34
2019-05-23T12:22:26.591Z,999.28
2019-05-23T12:23:26.826Z,999.36
2019-05-23T12:25:26.718Z,999.28
2019-05-23T12:26:26.785Z,999.23
2019-05-23T12:27:27.375Z,999.25
2019-05-23T12:28:27.775Z,999.29
2019-05-23T12:33:27.113Z,999.18
2019-05-23T12:34:27.181Z,999.09
2019-05-23T12:35:27.240Z,999.15
2019-05-23T12:38:27.369Z,999.13
2019-05-23T12:39:27.493Z,999.10
2019-05-23T12:40:27.505Z,999.13
2019-05-23T12:41:27.529Z,999.18
2019-05-23T12:42:27.574Z,999.15
2019-05-23T12:44:27.700Z,999.12
2019-05-23T12:53:31.093Z,999.06
2019-05-23T12:54:28.185Z,999.07
2019-05-23T12:55:28.237Z,999.02
2019-05-23T12:56:28.289Z,999.02
2019-05-23T12:57:28.338Z,998.99
2019-05-23T12:58:28.388Z,999.03
2019-05-23T12:59:28.439Z,999.04
2019-05-23T13:00:28.525Z,998.95
2019-05-23T13:01:28.767Z,999.01
2019-05-23T13:02:28.615Z,999.02
2019-05-23T13:03:28.652Z,998.97
2019-05-23T13:04:28.697Z,998.99
2019-05-23T13:05:28.748Z,999.05
2019-05-23T13:06:28.796Z,999.01
2019-05-23T13:07:36.241Z,999.03
2019-05-23T13:08:28.900Z,999.03
2019-05-23T13:09:28.952Z,998.96
2019-05-23T13:10:29.004Z,998.99
2019-05-23T13:11:29.053Z,998.96
2019-05-23T13:12:29.122Z,998.94
2019-05-23T13:13:29.159Z,998.99
2019-05-23T13:14:29.207Z,999.00
2019-05-23T13:15:29.257Z,998.93
2019-05-23T13:16:29.314Z,998.91
2019-05-23T13:17:29.360Z,998.92
2019-05-23T13:18:29.410Z,998.87
2019-05-23T13:19:29.465Z,998.93
2019-05-23T13:20:29.540Z,998.93
2019-05-23T13:21:30.852Z,998.91
2019-05-23T13:24:53.182Z,998.92
2019-05-23T13:25:50.378Z,998.91
2019-05-23T13:26:51.017Z,998.83
2019-05-23T13:30:50.385Z,998.78
2019-05-23T13:31:50.433Z,998.83
2019-05-23T13:32:50.491Z,998.82
2019-05-23T13:33:50.539Z,998.83
2019-05-23T13:34:50.611Z,998.83
2019-05-23T13:35:50.869Z,998.79
2019-05-23T13:36:50.937Z,998.74
2019-05-23T13:38:51.419Z,998.70
2019-05-23T13:40:50.915Z,998.74
2019-05-23T13:41:50.947Z,998.74
2019-05-23T13:42:51.200Z,998.67
2019-05-23T13:43:51.126Z,998.67
2019-05-23T13:44:51.122Z,998.66
2019-05-23T13:46:51.226Z,998.73
2019-05-23T13:47:51.479Z,998.69
2019-05-23T13:48:51.377Z,998.68
2019-05-23T13:49:51.437Z,998.58
2019-05-23T13:50:51.407Z,998.70
2019-05-23T13:51:51.500Z,998.66
2019-05-23T13:52:51.528Z,998.65
2019-05-23T13:53:51.600Z,998.62
2019-05-23T13:54:52.040Z,998.60
2019-05-23T13:55:51.708Z,998.56
2019-05-23T13:57:51.785Z,998.57
2019-05-23T13:58:52.038Z,998.59
2019-05-23T13:59:51.888Z,998.59
2019-05-23T14:01:52.801Z,998.55
2019-05-23T14:02:52.961Z,998.57
2019-05-23T14:03:52.299Z,998.50
2019-05-23T14:04:52.348Z,998.48
2019-05-23T14:05:52.199Z,998.43
2019-05-23T14:06:52.251Z,998.48
2019-05-23T14:08:08.790Z,998.50
2019-05-23T14:08:52.348Z,998.42
2019-05-23T14:09:52.401Z,998.47
2019-05-23T14:12:19.576Z,998.44
2019-05-23T14:12:52.529Z,998.42
2019-05-23T14:13:59.485Z,998.41
2019-05-23T14:14:52.629Z,998.40
2019-05-23T14:15:52.686Z,998.36
2019-05-23T14:16:52.732Z,998.40
2019-05-23T14:17:52.789Z,998.39
2019-05-23T14:18:53.058Z,998.40
2019-05-23T14:19:52.884Z,998.43
2019-05-23T14:27:53.517Z,998.20
2019-05-23T14:28:54.087Z,998.22
2019-05-23T14:29:54.127Z,998.21
2019-05-23T14:30:53.440Z,998.22
2019-05-23T14:31:53.490Z,998.15
2019-05-23T14:32:53.541Z,998.15
2019-05-23T14:33:53.590Z,998.18
2019-05-23T14:34:53.639Z,998.15
2019-05-23T14:35:53.690Z,998.14
2019-05-23T14:36:53.743Z,998.13
2019-05-23T14:37:53.791Z,998.12
2019-05-23T14:38:53.839Z,998.10
2019-05-23T14:39:53.890Z,998.10
2019-05-23T14:40:53.942Z,998.17
2019-05-23T14:41:53.990Z,998.17
2019-05-23T14:42:54.043Z,998.10
2019-05-23T14:43:54.102Z,998.11
2019-05-23T14:44:54.139Z,998.09
2019-05-23T14:45:54.198Z,998.07
2019-05-23T14:46:54.238Z,998.11
2019-05-23T14:47:54.320Z,998.19
2019-05-23T14:48:54.347Z,998.20
2019-05-23T14:49:54.438Z,998.23
2019-05-23T14:50:54.449Z,998.18
2019-05-23T14:51:54.488Z,998.12
2019-05-23T14:52:54.538Z,998.05
2019-05-23T14:53:54.588Z,998.02
2019-05-23T14:54:54.636Z,998.07
2019-05-23T14:55:54.686Z,998.01